createdAt,value
2023-02-17T00:00:36.529Z,99214.94
2023-02-17T00:03:02.980Z,99217.06
2023-02-17T00:05:29.490Z,99217.06
2023-02-17T00:07:55.938Z,99220.19
2023-02-17T00:10:22.377Z,99222.97
2023-02-17T00:12:48.820Z,99225.94
2023-02-17T00:15:15.278Z,99228.53
2023-02-17T00:17:41.696Z,99222.25
2023-02-17T00:20:09.028Z,99225.59
2023-02-17T00:22:36.189Z,99223.59
2023-02-17T00:25:02.780Z,99219.00
2023-02-17T00:27:29.228Z,99216.84
2023-02-17T00:29:55.745Z,99211.59
2023-02-17T00:32:22.252Z,99206.31
2023-02-17T00:34:51.547Z,99207.78
2023-02-17T00:37:18.031Z,99202.38
2023-02-17T00:39:44.500Z,99199.69
2023-02-17T00:42:10.918Z,99193.63
2023-02-17T00:44:37.400Z,99194.94
2023-02-17T00:47:03.863Z,99200.25
2023-02-17T00:49:30.372Z,99211.13
2023-02-17T00:52:01.306Z,99194.69
2023-02-17T00:54:28.442Z,99207.38
2023-02-17T00:56:55.143Z,99208.81
2023-02-17T00:59:23.120Z,99208.81
2023-02-17T01:01:49.667Z,99202.72
2023-02-17T01:04:16.206Z,99199.75
2023-02-17T01:06:44.766Z,99202.22
2023-02-17T01:09:14.196Z,99202.06
2023-02-17T01:11:42.091Z,99212.13
2023-02-17T01:14:08.547Z,99208.66
2023-02-17T01:16:37.864Z,99206.38
2023-02-17T01:19:06.932Z,99208.78
2023-02-17T01:21:33.734Z,99211.09
2023-02-17T01:24:04.025Z,99197.94
2023-02-17T01:26:32.722Z,99200.72
2023-02-17T01:29:01.652Z,99211.41
2023-02-17T01:31:28.968Z,99200.09
2023-02-17T01:34:00.544Z,99207.50
2023-02-17T01:36:27.752Z,99212.63
2023-02-17T01:38:54.550Z,99213.28
2023-02-17T01:41:23.258Z,99216.91
2023-02-17T01:44:16.385Z,99209.50
2023-02-17T01:46:48.287Z,99206.69
2023-02-17T01:49:38.379Z,99193.22
2023-02-17T01:52:19.564Z,99196.19
2023-02-17T01:54:52.530Z,99191.06
2023-02-17T01:57:23.705Z,99195.03
2023-02-17T01:59:50.968Z,99193.06
2023-02-17T02:02:18.262Z,99186.16
2023-02-17T02:04:49.232Z,99188.28
2023-02-17T02:07:21.233Z,99183.84
2023-02-17T02:09:52.843Z,99180.75
2023-02-17T02:12:25.641Z,99173.66
2023-02-17T02:14:55.040Z,99184.53
2023-02-17T02:17:36.560Z,99182.53
2023-02-17T02:20:57.200Z,99172.69
2023-02-17T02:24:00.664Z,99177.97
2023-02-17T02:27:01.139Z,99163.81
2023-02-17T02:29:47.761Z,99173.03
2023-02-17T02:32:46.713Z,99162.34
2023-02-17T02:35:34.980Z,99157.56
2023-02-17T02:38:22.081Z,99146.38
2023-02-17T02:41:09.371Z,99159.25
2023-02-17T02:43:37.663Z,99159.06
2023-02-17T02:46:04.701Z,99159.25
2023-02-17T02:48:31.335Z,99158.59
2023-02-17T02:51:18.090Z,99147.25
2023-02-17T02:53:55.732Z,99151.38
2023-02-17T02:56:41.354Z,99141.19
2023-02-17T02:59:46.406Z,99137.88
2023-02-17T03:02:27.943Z,99139.69
2023-02-17T03:05:00.616Z,99140.19
2023-02-17T03:07:44.979Z,99136.25
2023-02-17T03:10:13.639Z,99131.47
2023-02-17T03:12:41.317Z,99126.88
2023-02-17T03:15:22.447Z,99122.44
2023-02-17T03:17:48.979Z,99124.59
2023-02-17T03:20:15.695Z,99114.38
2023-02-17T03:22:47.290Z,99113.88
2023-02-17T03:25:15.521Z,99122.09
2023-02-17T03:27:43.418Z,99112.41
2023-02-17T03:30:10.939Z,99105.84
2023-02-17T03:32:37.420Z,99112.06
2023-02-17T03:35:05.018Z,99120.16
2023-02-17T03:37:31.545Z,99120.97
2023-02-17T03:39:58.052Z,99126.72
2023-02-17T03:42:24.716Z,99116.53
2023-02-17T03:44:51.208Z,99118.16
2023-02-17T03:47:17.672Z,99119.81
2023-02-17T03:49:44.123Z,99113.38
2023-02-17T03:52:11.073Z,99118.63
2023-02-17T03:54:37.521Z,99117.81
2023-02-17T03:57:04.080Z,99117.69
2023-02-17T03:59:30.584Z,99116.69
2023-02-17T04:01:57.013Z,99129.19
2023-02-17T04:04:23.728Z,99121.47
2023-02-17T04:06:50.223Z,99120.66
2023-02-17T04:09:16.722Z,99121.63
2023-02-17T04:11:43.953Z,99125.59
2023-02-17T04:14:10.706Z,99124.75
2023-02-17T04:16:39.110Z,99121.47
2023-02-17T04:19:07.249Z,99135.59
2023-02-17T04:21:33.836Z,99120.78
2023-02-17T04:24:01.462Z,99130.84
2023-02-17T04:26:28.585Z,99135.09
2023-02-17T04:28:55.076Z,99127.72
2023-02-17T04:31:21.827Z,99129.19
2023-02-17T04:33:48.379Z,99123.41
2023-02-17T04:36:14.983Z,99127.53
2023-02-17T04:38:41.437Z,99133.13
2023-02-17T04:41:07.912Z,99124.28
2023-02-17T04:43:34.401Z,99119.16
2023-02-17T04:46:00.898Z,99117.00
2023-02-17T04:48:27.410Z,99115.69
2023-02-17T04:50:53.946Z,99114.22
2023-02-17T04:53:20.797Z,99108.63
2023-02-17T04:55:52.526Z,99112.75
2023-02-17T04:58:20.006Z,99113.88
2023-02-17T05:00:48.438Z,99113.06
2023-02-17T05:03:15.169Z,99106.16
2023-02-17T05:05:41.645Z,99113.88
2023-02-17T05:08:08.547Z,99118.63
2023-02-17T05:10:35.035Z,99116.38
2023-02-17T05:13:01.476Z,99120.13
2023-02-17T05:15:27.940Z,99127.22
2023-02-17T05:17:54.389Z,99122.78
2023-02-17T05:20:21.057Z,99133.63
2023-02-17T05:22:47.512Z,99127.88
2023-02-17T05:25:14.116Z,99129.03
2023-02-17T05:27:40.918Z,99120.66
2023-02-17T05:30:07.813Z,99126.41
2023-02-17T05:32:34.319Z,99121.16
2023-02-17T05:35:00.780Z,99123.59
2023-02-17T05:37:27.505Z,99128.38
2023-02-17T05:39:53.981Z,99127.38
2023-02-17T05:42:20.469Z,99116.69
2023-02-17T05:44:46.916Z,99125.09
2023-02-17T05:47:13.368Z,99123.28
2023-02-17T05:49:39.834Z,99126.91
2023-02-17T05:52:06.297Z,99135.25
2023-02-17T05:54:32.784Z,99131.00
2023-02-17T05:56:59.261Z,99136.75
2023-02-17T05:59:25.891Z,99148.28
2023-02-17T06:01:52.712Z,99146.97
2023-02-17T06:04:19.210Z,99142.00
2023-02-17T06:06:45.680Z,99150.22
2023-02-17T06:09:12.144Z,99152.38
2023-02-17T06:11:38.654Z,99155.50
2023-02-17T06:14:05.192Z,99146.63
2023-02-17T06:16:31.758Z,99150.56
2023-02-17T06:19:00.046Z,99146.97
2023-02-17T06:21:26.507Z,99144.63
2023-02-17T06:23:53.046Z,99158.28
2023-02-17T06:26:19.584Z,99164.19
2023-02-17T06:28:46.104Z,99162.06
2023-02-17T06:31:12.624Z,99155.00
2023-02-17T06:33:39.112Z,99156.81
2023-02-17T06:36:06.295Z,99155.34
2023-02-17T06:38:33.015Z,99160.59
2023-02-17T06:40:59.953Z,99164.88
2023-02-17T06:43:26.504Z,99163.88
2023-02-17T06:45:53.227Z,99166.34
2023-02-17T06:48:19.716Z,99164.19
2023-02-17T06:50:46.179Z,99178.34
2023-02-17T06:53:12.751Z,99175.88
2023-02-17T06:55:39.561Z,99186.56
2023-02-17T06:58:07.246Z,99177.34
2023-02-17T07:00:33.720Z,99186.91
2023-02-17T07:03:00.274Z,99186.09
2023-02-17T07:05:27.042Z,99198.91
2023-02-17T07:07:53.602Z,99195.31
2023-02-17T07:10:20.398Z,99212.56
2023-02-17T07:12:46.904Z,99224.41
2023-02-17T07:15:14.910Z,99228.69
2023-02-17T07:17:41.370Z,99222.78
2023-02-17T07:20:09.325Z,99228.69
2023-02-17T07:22:35.789Z,99224.09
2023-02-17T07:25:02.262Z,99228.03
2023-02-17T07:27:28.783Z,99216.69
2023-02-17T07:29:55.603Z,99221.78
2023-02-17T07:32:22.225Z,99234.78
2023-02-17T07:34:48.843Z,99227.53
2023-02-17T07:37:15.381Z,99223.25
2023-02-17T07:39:42.634Z,99223.75
2023-02-17T07:42:10.051Z,99229.34
2023-02-17T07:44:36.863Z,99231.16
2023-02-17T07:47:03.989Z,99235.59
2023-02-17T07:49:31.186Z,99229.50
2023-02-17T07:51:57.699Z,99226.53
2023-02-17T07:54:24.404Z,99223.38
2023-02-17T07:56:50.886Z,99208.75
2023-02-17T07:59:17.426Z,99200.84
2023-02-17T08:01:43.965Z,99197.22
2023-02-17T08:04:10.503Z,99197.53
2023-02-17T08:06:39.840Z,99191.94
2023-02-17T08:09:25.011Z,99209.88
2023-02-17T08:12:10.358Z,99221.72
2023-02-17T08:14:38.269Z,99230.44
2023-02-17T08:17:06.037Z,99240.47
2023-02-17T08:19:46.922Z,99243.78
2023-02-17T08:22:13.760Z,99249.69
2023-02-17T08:24:40.213Z,99243.78
2023-02-17T08:27:06.696Z,99241.47
2023-02-17T08:29:33.173Z,99236.53
2023-02-17T08:31:59.903Z,99236.53
2023-02-17T08:34:26.559Z,99232.56
2023-02-17T08:36:53.052Z,99236.03
2023-02-17T08:39:19.724Z,99239.28
2023-02-17T08:41:46.666Z,99239.09
2023-02-17T08:44:16.408Z,99248.03
2023-02-17T08:46:44.613Z,99241.78
2023-02-17T08:49:11.621Z,99243.94
2023-02-17T08:51:39.026Z,99246.88
2023-02-17T08:54:06.792Z,99220.03
2023-02-17T08:56:34.550Z,99242.75
2023-02-17T08:59:01.739Z,99246.19
2023-02-17T09:01:28.350Z,99242.94
2023-02-17T09:03:56.319Z,99234.72
2023-02-17T09:06:22.974Z,99246.06
2023-02-17T09:08:50.205Z,99242.09
2023-02-17T09:11:19.021Z,99258.22
2023-02-17T09:13:45.977Z,99250.84
2023-02-17T09:16:12.545Z,99247.69
2023-02-17T09:18:39.219Z,99259.59
2023-02-17T09:21:11.611Z,99263.88
2023-02-17T09:23:38.610Z,99253.00
2023-02-17T09:26:10.025Z,99244.59
2023-02-17T09:28:37.216Z,99252.03
2023-02-17T09:31:12.173Z,99249.38
2023-02-17T09:33:40.321Z,99245.09
2023-02-17T09:36:08.670Z,99250.69
2023-02-17T09:38:37.209Z,99257.25
2023-02-17T09:41:20.970Z,99260.03
2023-02-17T09:43:48.070Z,99260.34
2023-02-17T09:46:49.753Z,99256.09
2023-02-17T09:49:26.571Z,99254.06
2023-02-17T09:52:08.942Z,99255.88
2023-02-17T09:54:44.817Z,99262.25
2023-02-17T09:57:19.683Z,99263.56
2023-02-17T09:59:58.949Z,99277.22
2023-02-17T10:02:39.531Z,99279.72
2023-02-17T10:05:09.568Z,99279.06
2023-02-17T10:07:41.628Z,99287.47
2023-02-17T10:10:15.010Z,99280.53
2023-02-17T10:12:48.670Z,99288.31
2023-02-17T10:15:24.365Z,99290.59
2023-02-17T10:17:57.178Z,99290.09
2023-02-17T10:20:31.567Z,99297.81
2023-02-17T10:23:15.436Z,99302.63
2023-02-17T10:25:58.750Z,99299.19
2023-02-17T10:28:46.854Z,99299.31
2023-02-17T10:31:34.711Z,99306.03
2023-02-17T10:34:05.504Z,99314.25
2023-02-17T10:36:40.623Z,99303.03
2023-02-17T10:39:30.157Z,99300.25
2023-02-17T10:41:56.890Z,99299.94
2023-02-17T10:44:25.498Z,99294.00
2023-02-17T10:46:53.911Z,99284.75
2023-02-17T10:49:34.716Z,99293.41
2023-02-17T10:52:15.283Z,99288.72
2023-02-17T10:54:57.553Z,99295.63
2023-02-17T10:57:27.029Z,99300.56
2023-02-17T10:59:53.858Z,99302.03
2023-02-17T11:02:35.294Z,99293.44
2023-02-17T11:05:01.877Z,99294.94
2023-02-17T11:07:33.592Z,99299.00
2023-02-17T11:10:03.009Z,99288.66
2023-02-17T11:12:38.883Z,99296.81
2023-02-17T11:15:16.249Z,99294.13
2023-02-17T11:17:43.692Z,99278.13
2023-02-17T11:20:13.121Z,99274.00
2023-02-17T11:22:45.793Z,99269.06
2023-02-17T11:25:32.328Z,99276.81
2023-02-17T11:28:01.674Z,99273.13
2023-02-17T11:30:30.262Z,99275.34
2023-02-17T11:32:56.984Z,99264.91
2023-02-17T11:35:49.086Z,99266.34
2023-02-17T11:38:19.185Z,99265.53
2023-02-17T11:40:58.351Z,99268.66
2023-02-17T11:43:25.776Z,99255.16
2023-02-17T11:46:10.258Z,99262.00
2023-02-17T11:49:10.564Z,99254.75
2023-02-17T11:51:55.967Z,99261.22
2023-02-17T11:54:52.623Z,99257.44
2023-02-17T11:57:37.670Z,99243.63
2023-02-17T12:00:22.032Z,99254.78
2023-02-17T12:03:15.738Z,99241.13
2023-02-17T12:05:55.501Z,99242.00
2023-02-17T12:08:47.492Z,99249.94
2023-02-17T12:11:30.735Z,99240.28
2023-02-17T12:14:16.871Z,99244.59
2023-02-17T12:16:55.280Z,99233.53
2023-02-17T12:19:50.368Z,99238.19
2023-02-17T12:22:18.572Z,99237.38
2023-02-17T12:25:13.198Z,99249.88
2023-02-17T12:28:18.296Z,99254.63
2023-02-17T12:30:56.176Z,99251.97
2023-02-17T12:33:36.631Z,99250.66
2023-02-17T12:36:10.608Z,99240.72
2023-02-17T12:38:43.578Z,99251.13
2023-02-17T12:41:18.502Z,99243.03
2023-02-17T12:43:50.603Z,99234.88
2023-02-17T12:46:25.680Z,99233.28
2023-02-17T12:49:06.558Z,99233.44
2023-02-17T12:51:39.206Z,99231.63
2023-02-17T12:54:14.743Z,99221.88
2023-02-17T12:57:04.915Z,99221.88
2023-02-17T12:59:37.433Z,99220.41
2023-02-17T13:02:21.090Z,99218.44
2023-02-17T13:04:55.771Z,99209.69
2023-02-17T13:07:26.549Z,99212.81
2023-02-17T13:09:55.673Z,99215.13
2023-02-17T13:12:22.050Z,99216.66
2023-02-17T13:14:51.543Z,99208.25
2023-02-17T13:17:38.325Z,99208.97
2023-02-17T13:20:10.748Z,99207.97
2023-02-17T13:22:39.169Z,99208.16
2023-02-17T13:25:06.746Z,99197.47
2023-02-17T13:27:37.056Z,99198.94
2023-02-17T13:30:21.980Z,99186.91
2023-02-17T13:33:14.826Z,99183.75
2023-02-17T13:35:41.313Z,99180.16
2023-02-17T13:38:10.202Z,99176.75
2023-02-17T13:40:41.148Z,99175.09
2023-02-17T13:43:10.290Z,99188.09
2023-02-17T13:45:46.970Z,99182.97
2023-02-17T13:48:15.030Z,99177.38
2023-02-17T13:50:56.331Z,99179.47
2023-02-17T13:53:25.120Z,99177.31
2023-02-17T13:55:53.704Z,99184.03
2023-02-17T13:58:25.529Z,99185.84
2023-02-17T14:00:53.257Z,99183.50
2023-02-17T14:03:29.238Z,99173.28
2023-02-17T14:05:59.009Z,99166.19
2023-02-17T14:08:42.997Z,99182.88
2023-02-17T14:11:16.003Z,99183.19
2023-02-17T14:13:45.768Z,99180.53
2023-02-17T14:16:29.246Z,99176.25
2023-02-17T14:19:01.751Z,99178.44
2023-02-17T14:21:28.800Z,99180.88
2023-02-17T14:23:57.807Z,99173.97
2023-02-17T14:26:47.540Z,99173.34
2023-02-17T14:29:14.909Z,99169.69
2023-02-17T14:31:47.848Z,99168.69
2023-02-17T14:34:26.821Z,99163.25
2023-02-17T14:36:53.292Z,99170.16
2023-02-17T14:39:19.885Z,99165.06
2023-02-17T14:41:46.416Z,99167.34
2023-02-17T14:44:12.937Z,99169.13
2023-02-17T14:46:39.896Z,99172.09
2023-02-17T14:49:06.474Z,99167.28
2023-02-17T14:51:39.407Z,99172.56
2023-02-17T14:54:18.310Z,99173.91
2023-02-17T14:57:03.055Z,99174.56
2023-02-17T14:59:29.534Z,99166.28
2023-02-17T15:01:56.452Z,99162.19
2023-02-17T15:04:23.250Z,99160.38
2023-02-17T15:06:51.389Z,99156.94
2023-02-17T15:09:21.369Z,99150.22
2023-02-17T15:11:49.106Z,99156.94
2023-02-17T15:14:18.776Z,99162.72
2023-02-17T15:16:46.667Z,99157.75
2023-02-17T15:19:18.059Z,99164.84
2023-02-17T15:21:49.005Z,99170.75
2023-02-17T15:24:30.531Z,99173.22
2023-02-17T15:26:58.791Z,99174.38
2023-02-17T15:29:27.361Z,99175.22
2023-02-17T15:31:55.704Z,99161.69
2023-02-17T15:34:29.370Z,99171.56
2023-02-17T15:36:55.788Z,99169.66
2023-02-17T15:39:22.365Z,99177.75
2023-02-17T15:41:50.233Z,99189.59
2023-02-17T15:44:22.638Z,99196.31
2023-02-17T15:46:54.699Z,99190.41
2023-02-17T15:49:22.212Z,99190.75
2023-02-17T15:51:48.643Z,99179.66
2023-02-17T15:54:19.069Z,99196.84
2023-02-17T15:56:49.388Z,99193.56
2023-02-17T15:59:19.093Z,99196.03
2023-02-17T16:01:45.632Z,99191.75
2023-02-17T16:04:14.491Z,99193.72
2023-02-17T16:06:41.461Z,99191.09
2023-02-17T16:09:08.656Z,99192.44
2023-02-17T16:11:39.846Z,99187.16
2023-02-17T16:14:06.414Z,99184.19
2023-02-17T16:16:33.628Z,99171.34
2023-02-17T16:19:00.885Z,99188.97
2023-02-17T16:21:27.883Z,99193.44
2023-02-17T16:23:59.503Z,99180.06
2023-02-17T16:26:34.170Z,99175.16
2023-02-17T16:29:03.312Z,99178.75
2023-02-17T16:31:32.380Z,99192.13
2023-02-17T16:34:00.298Z,99187.97
2023-02-17T16:36:31.174Z,99190.78
2023-02-17T16:38:58.324Z,99191.81
2023-02-17T16:41:24.767Z,99206.97
2023-02-17T16:43:51.203Z,99199.72
2023-02-17T16:46:30.110Z,99207.16
2023-02-17T16:49:00.906Z,99195.06
2023-02-17T16:51:27.726Z,99191.28
2023-02-17T16:53:54.272Z,99210.91
2023-02-17T16:56:38.130Z,99201.50
2023-02-17T16:59:04.989Z,99209.56
2023-02-17T17:01:32.241Z,99215.50
2023-02-17T17:03:58.688Z,99214.81
2023-02-17T17:06:28.853Z,99225.22
2023-02-17T17:08:55.704Z,99218.75
2023-02-17T17:11:25.137Z,99219.59
2023-02-17T17:13:52.521Z,99230.47
2023-02-17T17:16:22.858Z,99225.00
2023-02-17T17:18:49.336Z,99229.28
2023-02-17T17:21:18.122Z,99229.97
2023-02-17T17:23:46.325Z,99235.56
2023-02-17T17:26:23.002Z,99249.91
2023-02-17T17:28:50.162Z,99253.50
2023-02-17T17:31:19.624Z,99262.13
2023-02-17T17:33:47.357Z,99260.16
2023-02-17T17:36:26.518Z,99260.44
2023-02-17T17:38:53.953Z,99267.84
2023-02-17T17:41:21.033Z,99268.22
2023-02-17T17:43:48.896Z,99279.88
2023-02-17T17:46:18.868Z,99276.25
2023-02-17T17:48:45.960Z,99287.59
2023-02-17T17:51:15.665Z,99288.78
2023-02-17T17:53:43.165Z,99296.19
2023-02-17T17:56:16.241Z,99295.19
2023-02-17T17:58:43.309Z,99310.88
2023-02-17T18:01:11.313Z,99298.31
2023-02-17T18:03:38.636Z,99299.59
2023-02-17T18:06:07.863Z,99313.81
2023-02-17T18:08:35.600Z,99305.41
2023-02-17T18:11:02.674Z,99293.31
2023-02-17T18:13:29.238Z,99291.69
2023-02-17T18:15:55.810Z,99289.06
2023-02-17T18:18:23.241Z,99282.94
2023-02-17T18:20:49.800Z,99290.06
2023-02-17T18:23:16.296Z,99289.34
2023-02-17T18:25:42.864Z,99283.09
2023-02-17T18:28:09.355Z,99295.28
2023-02-17T18:30:35.873Z,99308.47
2023-02-17T18:33:02.471Z,99306.47
2023-02-17T18:35:29.017Z,99303.78
2023-02-17T18:37:55.543Z,99312.38
2023-02-17T18:40:22.241Z,99313.47
2023-02-17T18:42:48.708Z,99314.47
2023-02-17T18:45:16.522Z,99318.47
2023-02-17T18:47:43.402Z,99323.09
2023-02-17T18:50:10.495Z,99322.22
2023-02-17T18:52:39.435Z,99322.06
2023-02-17T18:55:06.963Z,99320.59
2023-02-17T18:57:34.428Z,99317.41
2023-02-17T19:00:01.263Z,99334.88
2023-02-17T19:02:28.106Z,99328.63
2023-02-17T19:04:55.832Z,99327.97
2023-02-17T19:07:23.156Z,99338.69
2023-02-17T19:09:53.516Z,99333.38
2023-02-17T19:12:20.220Z,99337.91
2023-02-17T19:14:48.314Z,99327.97
2023-02-17T19:17:18.230Z,99332.78
2023-02-17T19:19:44.902Z,99336.03
2023-02-17T19:22:11.373Z,99340.16
2023-02-17T19:24:39.923Z,99344.59
2023-02-17T19:27:06.983Z,99341.66
2023-02-17T19:29:34.085Z,99340.03
2023-02-17T19:32:03.106Z,99358.66
2023-02-17T19:34:31.211Z,99352.41
2023-02-17T19:36:57.718Z,99344.47
2023-02-17T19:39:24.242Z,99350.88
2023-02-17T19:41:50.734Z,99353.84
2023-02-17T19:44:17.455Z,99362.59
2023-02-17T19:46:43.945Z,99352.34
2023-02-17T19:49:10.675Z,99352.03
2023-02-17T19:51:37.129Z,99355.34
2023-02-17T19:54:03.960Z,99354.84
2023-02-17T19:56:32.634Z,99358.03
2023-02-17T19:58:59.869Z,99356.97
2023-02-17T20:01:29.045Z,99361.44
2023-02-17T20:03:56.814Z,99369.41
2023-02-17T20:06:26.710Z,99361.13
2023-02-17T20:08:56.115Z,99363.44
2023-02-17T20:11:22.634Z,99367.06
2023-02-17T20:13:50.002Z,99360.97
2023-02-17T20:16:17.349Z,99379.63
2023-02-17T20:18:46.615Z,99376.31
2023-02-17T20:21:16.050Z,99372.38
2023-02-17T20:23:43.043Z,99375.03
2023-02-17T20:26:12.736Z,99373.38
2023-02-17T20:28:39.829Z,99378.84
2023-02-17T20:31:07.303Z,99372.41
2023-02-17T20:33:34.005Z,99368.84
2023-02-17T20:36:00.766Z,99377.38
2023-02-17T20:38:27.722Z,99375.25
2023-02-17T20:40:54.425Z,99376.09
2023-02-17T20:43:21.325Z,99381.38
2023-02-17T20:45:49.505Z,99382.38
2023-02-17T20:48:16.783Z,99385.13
2023-02-17T20:50:44.123Z,99385.31
2023-02-17T20:53:11.011Z,99382.88
2023-02-17T20:55:37.743Z,99377.59
2023-02-17T20:58:04.260Z,99369.50
2023-02-17T21:00:31.168Z,99374.09
2023-02-17T21:03:00.712Z,99376.53
2023-02-17T21:05:27.212Z,99368.09
2023-02-17T21:07:55.715Z,99369.09
2023-02-17T21:10:25.688Z,99373.56
2023-02-17T21:12:52.239Z,99377.41
2023-02-17T21:15:22.348Z,99376.78
2023-02-17T21:17:51.392Z,99369.16
2023-02-17T21:20:20.591Z,99375.88
2023-02-17T21:22:47.078Z,99377.41
2023-02-17T21:25:16.103Z,99368.63
2023-02-17T21:27:42.699Z,99367.00
2023-02-17T21:30:10.183Z,99366.00
2023-02-17T21:32:41.845Z,99362.53
2023-02-17T21:35:10.440Z,99369.63
2023-02-17T21:37:38.879Z,99367.00
2023-02-17T21:40:10.052Z,99366.81
2023-02-17T21:42:59.022Z,99366.63
2023-02-17T21:45:25.661Z,99370.16
2023-02-17T21:47:52.277Z,99365.16
2023-02-17T21:50:19.251Z,99362.81
2023-02-17T21:52:45.709Z,99359.03
2023-02-17T21:55:12.200Z,99365.66
2023-02-17T21:57:38.666Z,99360.00
2023-02-17T22:00:06.039Z,99362.47
2023-02-17T22:02:39.065Z,99347.81
2023-02-17T22:05:06.662Z,99360.47
2023-02-17T22:07:33.475Z,99360.97
2023-02-17T22:10:00.353Z,99360.47
2023-02-17T22:12:27.438Z,99360.13
2023-02-17T22:14:53.908Z,99354.22
2023-02-17T22:17:20.621Z,99357.84
2023-02-17T22:19:47.123Z,99350.56
2023-02-17T22:22:13.559Z,99349.09
2023-02-17T22:24:40.052Z,99351.69
2023-02-17T22:27:06.779Z,99365.19
2023-02-17T22:29:33.255Z,99359.63
2023-02-17T22:31:59.768Z,99364.22
2023-02-17T22:34:27.593Z,99354.00
2023-02-17T22:36:54.494Z,99350.34
2023-02-17T22:39:20.942Z,99353.16
2023-02-17T22:41:47.451Z,99362.19
2023-02-17T22:44:14.043Z,99358.56
2023-02-17T22:46:40.588Z,99358.94
2023-02-17T22:49:07.057Z,99364.84
2023-02-17T22:51:38.541Z,99355.81
2023-02-17T22:54:05.944Z,99354.94
2023-02-17T22:56:33.055Z,99350.63
2023-02-17T22:59:04.266Z,99346.19
2023-02-17T23:01:33.970Z,99352.31
2023-02-17T23:04:01.450Z,99358.44
2023-02-17T23:06:36.830Z,99341.94
2023-02-17T23:09:04.578Z,99340.13
2023-02-17T23:11:50.110Z,99340.97
2023-02-17T23:14:23.184Z,99338.81
2023-02-17T23:16:50.925Z,99330.13
2023-02-17T23:19:19.642Z,99342.84
2023-02-17T23:21:49.391Z,99344.16
2023-02-17T23:24:17.305Z,99351.63
2023-02-17T23:26:44.812Z,99345.69
2023-02-17T23:29:11.541Z,99349.00
2023-02-17T23:31:38.997Z,99351.50
2023-02-17T23:34:06.688Z,99359.56
2023-02-17T23:36:33.898Z,99346.41
2023-02-17T23:39:01.309Z,99339.63
2023-02-17T23:41:28.280Z,99341.16
2023-02-17T23:43:54.742Z,99345.44
2023-02-17T23:46:21.341Z,99348.22
2023-02-17T23:48:48.047Z,99351.56
2023-02-17T23:51:16.714Z,99351.38
2023-02-17T23:53:43.262Z,99348.94
2023-02-17T23:56:15.669Z,99349.75
2023-02-17T23:58:42.518Z,99351.91
